• Join FlightAware (Why Join?)
  • Login
  • US Flag 
02:20PM EDT


 

Airport Tracker/Info


-or-


 

Live Flight TrackerFlight Track Log ✈ SLI2164 ✈ 01-Sep-2013 ✈ MMMX / MEX - MMCL / CUL

Flight Track Log - Related Links

Times and Time Zones

All times are in EDT time to prevent confusion due to time zone crossing. See the SLI2164 flight status page for this flight to view local times or setup timezone preferences in your user account.

Time Position Orientation Groundspeed Altitude Reporting Facility
EDT Latitude Longitude Course Direction KTS MPH feet Rate Location/Type
09:34AM 20.3638 -100.4456 306° West  Level Estimated
09:35AM 20.4296 -100.5443 305° West  Level Estimated
09:36AM 20.4954 -100.6432 305° West  Level Estimated
09:37AM 20.5611 -100.7421 305° West  Level Estimated
09:38AM 20.6268 -100.8410 305° West  Level Estimated
09:39AM 20.6924 -100.9401 305° West  Level Estimated
09:40AM 20.7579 -101.0393 305° West  Level Estimated
09:41AM 20.8235 -101.1385 305° West  Level Estimated
09:42AM 20.8889 -101.2378 305° West  Level Estimated
09:43AM 20.9543 -101.3372 305° West  Level Estimated
09:44AM 21.0196 -101.4367 305° West  Level Estimated
09:45AM 21.0849 -101.5363 305° West  Level Estimated
09:46AM 21.1501 -101.6360 305° West  Level Estimated
09:47AM 21.2152 -101.7358 305° West  Level Estimated
09:48AM 21.2803 -101.8356 305° West  Level Estimated
09:49AM 21.3454 -101.9356 305° West  Level Estimated
09:50AM 21.4104 -102.0356 305° West  Level Estimated
09:51AM 21.4753 -102.1357 305° West  Level Estimated
09:52AM 21.5401 -102.2359 305° West  Level Estimated
09:53AM 21.6049 -102.3362 305° West  Level Estimated
09:54AM 21.6697 -102.4366 305° West  Level Estimated
09:55AM 21.7344 -102.5371 305° West  Level Estimated
09:56AM 21.7990 -102.6377 305° West  Level Estimated
09:57AM 21.8635 -102.7383 305° West  Level Estimated
09:58AM 21.9280 -102.8391 305° West  Level Estimated
09:59AM 21.9925 -102.9399 305° West  Level Estimated
10:00AM 22.0568 -103.0408 305° West  Level Estimated
10:01AM 22.1211 -103.1419 305° West  Level Estimated
10:02AM 22.1854 -103.2430 304° West  Level Estimated
10:03AM 22.2496 -103.3442 304° West  Level Estimated
10:04AM 22.3137 -103.4455 304° West  Level Estimated
10:05AM 22.3778 -103.5469 304° West  Level Estimated
10:06AM 22.4418 -103.6484 304° West  Level Estimated
10:07AM 22.5057 -103.7499 304° West  Level Estimated
10:08AM 22.5696 -103.8516 304° West  Level Estimated
10:09AM 22.6334 -103.9534 304° West  Level Estimated
10:10AM 22.6971 -104.0553 304° West  Level Estimated
10:11AM 22.7608 -104.1572 304° West  Level Estimated
10:12AM 22.8244 -104.2593 304° West  Level Estimated
10:13AM 22.8880 -104.3614 304° West  Level Estimated
10:14AM 22.9514 -104.4637 304° West  Level Estimated
10:15AM 23.0149 -104.5660 304° West  Level Estimated
10:16AM 23.0782 -104.6684 304° West  Level Estimated
10:17AM 23.1415 -104.7710 304° West  Level Estimated
10:18AM 23.2047 -104.8736 304° West  Level Estimated
10:19AM 23.2679 -104.9763 304° West  Level Estimated
10:20AM 23.3309 -105.0792 304° West  Level Estimated
10:21AM 23.3939 -105.1821 304° West  Level Estimated
10:22AM 23.4569 -105.2851 304° West  Level Estimated
10:23AM 23.5198 -105.3882 304° West  Level Estimated
10:24AM 23.5826 -105.4914 304° West  Level Estimated
10:25AM 23.6453 -105.5948 304° West  Level Estimated
10:26AM 23.7080 -105.6982 304° West  Level Estimated
10:27AM 23.7706 -105.8017 303° West  Level Estimated
10:28AM 23.8332 -105.9053 303° West  Level Estimated
10:29AM 23.8956 -106.0090 303° West  Level Estimated
10:30AM 23.9580 -106.1128 303° West  Level Estimated
10:31AM 24.0204 -106.2168 303° West  Level Estimated
10:32AM 24.0826 -106.3208 303° West  Level Estimated
10:33AM 24.1448 -106.4249 303° West  Level Estimated
10:34AM 24.2069 -106.5291 303° West  Level Estimated
10:35AM 24.2690 -106.6334 303° West  Level Estimated
10:36AM 24.3310 -106.7378 303° West  Level Estimated
10:37AM 24.3929 -106.8424 303° West  Level Estimated
10:38AM 24.4547 -106.9470 303° West  Level Estimated
10:39AM 24.5165 -107.0517 303° West  Level Estimated
10:40AM 24.5781 -107.1566 303° West  Level Estimated
10:41AM 24.6398 -107.2615 303° West  Level Estimated
10:42AM 24.7013 -107.3665 303° West  Level Estimated
10:43AM 24.7628 -107.4717 303° West  Level Estimated
10:44AM 24.7645 -107.4747 303° West  Level Estimated
10:45AM 24.7645 -107.4747 138° Southeast  Level Estimated
10:46AM 24.7645 -107.4747 138° Southeast  Level Estimated
10:47AM 24.7645 -107.4747 138° Southeast  Level Estimated
10:48AM 24.7645 -107.4747 138° Southeast  Level Estimated
10:49AM 24.7645 -107.4747 138° Southeast  Level Estimated
10:50AM 24.7645 -107.4747 138° Southeast  Level Estimated
10:51AM 24.7645 -107.4747 138° Southeast  Level Estimated
10:52AM 24.7645 -107.4747 138° Southeast  Level Estimated
10:53AM 24.7645 -107.4747 138° Southeast  Level Estimated
10:54AM 24.7645 -107.4747 138° Southeast  Level Estimated
10:55AM 24.7645 -107.4747 138° Southeast  Level Estimated
10:56AM 24.7645 -107.4747 138° Southeast  Level Estimated
10:57AM 24.7645 -107.4747 138° Southeast  Level Estimated
10:58AM 24.7645 -107.4747 138° Southeast  Level Estimated
10:59AM 24.7645 -107.4747 138° Southeast  Level Estimated